createdAt,value
2023-04-22T00:01:40.705Z,51.93
2023-04-22T00:06:44.631Z,51.37
2023-04-22T00:11:45.294Z,51.40
2023-04-22T00:16:45.859Z,51.28
2023-04-22T00:21:46.733Z,51.72
2023-04-22T00:26:49.380Z,51.88
2023-04-22T00:31:49.065Z,53.30
2023-04-22T00:36:49.209Z,53.54
2023-04-22T00:41:49.825Z,53.17
2023-04-22T00:46:50.449Z,53.27
2023-04-22T00:51:53.139Z,52.61
2023-04-22T00:56:53.441Z,52.60
2023-04-22T01:01:55.474Z,54.07
2023-04-22T01:06:57.169Z,54.01
2023-04-22T01:18:42.512Z,53.35
2023-04-22T01:31:44.298Z,54.05
2023-04-22T01:36:53.633Z,55.18
2023-04-22T01:43:08.596Z,56.35
2023-04-22T01:48:09.678Z,57.38
2023-04-22T01:53:14.174Z,55.75
2023-04-22T01:58:15.040Z,56.03
2023-04-22T02:03:15.630Z,56.18
2023-04-22T02:08:15.896Z,56.63
2023-04-22T02:13:16.781Z,56.40
2023-04-22T02:18:18.386Z,57.22
2023-04-22T02:23:18.805Z,58.05
2023-04-22T02:28:18.513Z,58.97
2023-04-22T02:33:19.152Z,58.47
2023-04-22T02:38:18.911Z,57.25
2023-04-22T02:43:18.941Z,56.75
2023-04-22T02:48:21.592Z,57.34
2023-04-22T02:53:21.108Z,58.05
2023-04-22T02:58:20.515Z,58.54
2023-04-22T03:03:22.234Z,58.73
2023-04-22T03:08:26.608Z,58.91
2023-04-22T03:13:27.232Z,59.58
2023-04-22T03:25:53.427Z,59.16
2023-04-22T03:30:53.634Z,59.85
2023-04-22T03:36:51.082Z,60.23
2023-04-22T03:42:33.968Z,59.57
2023-04-22T03:47:36.669Z,59.73
2023-04-22T03:52:43.252Z,60.35
2023-04-22T03:57:45.687Z,60.34
2023-04-22T04:02:46.238Z,60.53
2023-04-22T04:07:52.883Z,60.75
2023-04-22T04:12:59.182Z,61.61
2023-04-22T04:18:02.448Z,60.73
2023-04-22T04:23:21.243Z,59.88
2023-04-22T04:28:38.452Z,59.94
2023-04-22T04:33:40.470Z,60.00
2023-04-22T04:38:45.857Z,61.76
2023-04-22T04:43:50.816Z,61.72
2023-04-22T04:49:02.743Z,62.92
2023-04-22T04:54:08.985Z,62.17
2023-04-22T04:59:10.848Z,61.72
2023-04-22T05:04:14.987Z,61.33
2023-04-22T05:09:54.341Z,61.53
2023-04-22T05:15:42.917Z,61.26
2023-04-22T05:21:53.350Z,60.93
2023-04-22T05:27:23.338Z,61.46
2023-04-22T05:39:55.593Z,63.77
2023-04-22T05:45:47.528Z,62.09
2023-04-22T05:52:21.035Z,63.56
2023-04-22T05:58:39.202Z,63.43
2023-04-22T06:12:23.962Z,63.12
2023-04-22T06:18:17.141Z,61.63
2023-04-22T06:29:48.225Z,60.95
2023-04-22T06:35:45.690Z,61.53
2023-04-22T06:41:20.194Z,60.91
2023-04-22T06:47:04.906Z,60.93
2023-04-22T06:52:40.507Z,60.61
2023-04-22T06:57:50.025Z,59.71
2023-04-22T07:08:47.402Z,57.86
2023-04-22T07:14:28.538Z,56.69
2023-04-22T07:20:35.511Z,56.43
2023-04-22T07:26:27.858Z,55.97
2023-04-22T07:32:26.077Z,55.93
2023-04-22T07:38:31.943Z,54.95
2023-04-22T07:43:35.378Z,54.10
2023-04-22T07:49:09.829Z,53.18
2023-04-22T08:00:58.573Z,50.94
2023-04-22T08:06:47.966Z,49.98
2023-04-22T08:11:51.835Z,48.85
2023-04-22T08:16:52.935Z,47.96
2023-04-22T08:22:43.787Z,47.35
2023-04-22T08:28:25.991Z,45.69
2023-04-22T08:33:27.379Z,46.11
2023-04-22T08:38:28.381Z,45.44
2023-04-22T08:43:30.189Z,43.20
2023-04-22T08:54:46.645Z,42.30
2023-04-22T08:59:46.708Z,42.72
2023-04-22T09:05:01.760Z,42.64
2023-04-22T09:10:05.697Z,40.27
2023-04-22T09:15:12.439Z,40.66
2023-04-22T09:20:16.514Z,39.13
2023-04-22T09:25:22.799Z,39.66
2023-04-22T09:30:35.215Z,39.08
2023-04-22T09:35:40.119Z,37.93
2023-04-22T09:40:48.396Z,38.57
2023-04-22T09:47:24.709Z,37.66
2023-04-22T09:52:29.068Z,34.68
2023-04-22T09:57:32.077Z,35.41
2023-04-22T10:02:39.619Z,35.84
2023-04-22T10:07:45.057Z,34.69
2023-04-22T10:12:44.977Z,34.53
2023-04-22T10:17:48.802Z,34.26
2023-04-22T10:23:40.624Z,33.31
2023-04-22T10:29:27.131Z,34.60
2023-04-22T10:41:54.104Z,32.75
2023-04-22T10:53:53.246Z,32.88
2023-04-22T10:58:57.279Z,32.78
2023-04-22T11:04:20.027Z,33.11
2023-04-22T11:09:19.957Z,30.56
2023-04-22T11:14:24.225Z,29.94
2023-04-22T11:19:25.467Z,31.28
2023-04-22T11:24:25.622Z,30.70
2023-04-22T11:29:25.954Z,31.28
2023-04-22T11:34:28.417Z,31.52
2023-04-22T11:39:55.974Z,31.02
2023-04-22T11:45:01.718Z,31.91
2023-04-22T11:50:05.463Z,30.42
2023-04-22T11:55:05.239Z,29.53
2023-04-22T12:00:05.633Z,24.74
2023-04-22T12:05:06.116Z,25.59
2023-04-22T12:10:08.233Z,25.34
2023-04-22T12:15:18.173Z,25.57
2023-04-22T12:20:18.308Z,24.03
2023-04-22T12:25:23.346Z,24.71
2023-04-22T12:30:24.861Z,24.66
2023-04-22T12:35:24.822Z,27.65
2023-04-22T12:40:24.810Z,28.01
2023-04-22T12:45:25.033Z,26.99
2023-04-22T12:50:25.036Z,25.12
2023-04-22T12:55:25.217Z,25.08
2023-04-22T13:00:26.659Z,22.20
2023-04-22T13:05:26.993Z,23.99
2023-04-22T13:10:28.374Z,25.62
2023-04-22T13:15:30.327Z,25.78
2023-04-22T13:20:30.288Z,26.23
2023-04-22T13:25:32.762Z,25.60
2023-04-22T13:30:32.733Z,25.18
2023-04-22T13:35:32.496Z,24.83
2023-04-22T13:40:31.834Z,25.85
2023-04-22T13:45:51.889Z,25.96
2023-04-22T13:50:51.260Z,24.99
2023-04-22T13:55:50.891Z,25.80
2023-04-22T14:00:50.824Z,26.46
2023-04-22T14:05:49.870Z,26.17
2023-04-22T14:10:48.615Z,26.08
2023-04-22T14:15:47.511Z,25.48
2023-04-22T14:20:48.407Z,22.24
2023-04-22T14:25:48.624Z,24.26
2023-04-22T14:30:49.298Z,24.37
2023-04-22T14:35:49.126Z,25.36
2023-04-22T14:40:48.737Z,25.99
2023-04-22T14:45:49.386Z,26.56
2023-04-22T14:50:49.044Z,27.39
2023-04-22T14:55:48.874Z,26.85
2023-04-22T15:00:49.115Z,26.03
2023-04-22T15:05:49.567Z,25.24
2023-04-22T15:10:49.505Z,23.97
2023-04-22T15:15:52.240Z,22.52
2023-04-22T15:20:52.717Z,19.54
2023-04-22T15:25:51.855Z,17.60
2023-04-22T15:30:50.972Z,16.16
2023-04-22T15:35:50.692Z,18.13
2023-04-22T15:40:49.655Z,19.12
2023-04-22T15:45:49.263Z,19.72
2023-04-22T15:50:48.400Z,20.71
2023-04-22T15:55:48.752Z,21.43
2023-04-22T16:00:47.732Z,20.59
2023-04-22T16:05:47.283Z,19.80
2023-04-22T16:10:48.105Z,19.99
2023-04-22T16:15:47.881Z,18.24
2023-04-22T16:20:48.431Z,16.89
2023-04-22T16:25:48.487Z,16.67
2023-04-22T16:30:47.421Z,14.86
2023-04-22T16:35:47.132Z,14.34
2023-04-22T16:40:46.156Z,14.51
2023-04-22T16:45:46.870Z,14.97
2023-04-22T16:50:46.177Z,15.33
2023-04-22T16:55:48.225Z,15.37
2023-04-22T17:00:48.777Z,15.09
2023-04-22T17:05:48.278Z,14.66
2023-04-22T17:10:52.073Z,15.08
2023-04-22T17:15:51.588Z,16.13
2023-04-22T17:20:51.527Z,17.43
2023-04-22T17:25:51.096Z,18.63
2023-04-22T17:30:50.724Z,19.66
2023-04-22T17:35:50.207Z,20.75
2023-04-22T17:40:52.539Z,21.93
2023-04-22T17:45:51.259Z,22.82
2023-04-22T17:50:50.938Z,23.68
2023-04-22T17:55:50.238Z,24.26
2023-04-22T18:00:50.131Z,25.40
2023-04-22T18:05:49.229Z,26.28
2023-04-22T18:10:48.712Z,26.96
2023-04-22T18:15:48.133Z,27.54
2023-04-22T18:20:47.360Z,28.13
2023-04-22T18:25:48.199Z,29.00
2023-04-22T18:30:48.444Z,29.52
2023-04-22T18:35:47.674Z,30.28
2023-04-22T18:40:47.091Z,31.02
2023-04-22T18:45:46.953Z,31.15
2023-04-22T18:50:46.965Z,32.01
2023-04-22T18:55:47.409Z,32.38
2023-04-22T19:00:48.055Z,33.16
2023-04-22T19:05:50.954Z,33.51
2023-04-22T19:10:50.499Z,33.87
2023-04-22T19:15:49.678Z,34.76
2023-04-22T19:20:49.322Z,35.19
2023-04-22T19:25:49.760Z,35.13
2023-04-22T19:30:49.856Z,35.53
2023-04-22T19:35:49.047Z,35.80
2023-04-22T19:40:50.495Z,36.20
2023-04-22T19:45:50.527Z,36.52
2023-04-22T19:50:51.142Z,37.00
2023-04-22T19:55:52.641Z,37.39
2023-04-22T20:00:53.640Z,37.56
2023-04-22T20:05:55.716Z,38.04
2023-04-22T20:10:56.748Z,38.56
2023-04-22T20:16:11.984Z,39.27
2023-04-22T20:21:13.063Z,40.46
2023-04-22T20:26:13.497Z,40.29
2023-04-22T20:31:13.833Z,40.46
2023-04-22T20:36:16.482Z,41.16
2023-04-22T20:41:19.043Z,42.75
2023-04-22T20:46:20.207Z,43.25
2023-04-22T20:51:24.418Z,43.22
2023-04-22T20:56:23.272Z,43.61
2023-04-22T21:01:23.056Z,44.02
2023-04-22T21:06:24.326Z,44.48
2023-04-22T21:11:26.769Z,44.92
2023-04-22T21:16:31.718Z,45.28
2023-04-22T21:21:36.206Z,45.63
2023-04-22T21:26:37.619Z,45.84
2023-04-22T21:31:38.050Z,45.78
2023-04-22T21:36:37.687Z,46.19
2023-04-22T21:41:37.611Z,46.83
2023-04-22T21:46:37.212Z,46.75
2023-04-22T21:51:40.245Z,47.45
2023-04-22T21:56:40.729Z,47.54
2023-04-22T22:01:39.606Z,48.35
2023-04-22T22:06:38.735Z,48.23
2023-04-22T22:11:41.053Z,49.07
2023-04-22T22:16:40.447Z,49.44
2023-04-22T22:21:39.402Z,49.75
2023-04-22T22:26:41.161Z,49.48
2023-04-22T22:31:40.063Z,49.42
2023-04-22T22:36:39.039Z,48.68
2023-04-22T22:41:38.357Z,48.47
2023-04-22T22:46:40.427Z,48.39
2023-04-22T22:51:40.340Z,48.65
2023-04-22T22:56:39.542Z,49.27
2023-04-22T23:01:39.482Z,49.99
2023-04-22T23:06:38.760Z,49.97
2023-04-22T23:11:38.168Z,49.57
2023-04-22T23:16:38.293Z,49.70
2023-04-22T23:21:39.128Z,50.76
2023-04-22T23:26:40.101Z,50.92
2023-04-22T23:31:41.284Z,51.40
2023-04-22T23:36:41.305Z,51.49
2023-04-22T23:41:40.981Z,50.90
2023-04-22T23:46:40.694Z,51.51
2023-04-22T23:51:39.706Z,51.83
2023-04-22T23:56:45.605Z,51.32
